Terminal Aerodrome Forecast
Issued by NWS Salt Lake City, UT

Home | Current Version | Previous Version | Text Only | Print | Product List | Glossary On
Versions: 1 2 3 4 5 6 7 8 9 10 11 12 13 14 15 16 17 18 19 20 21 22 23 24 25 26 27 28 29 30 31 32 33 34 35 36
000
FTUS45 KSLC 222323
TAFCDC
TAF
KCDC 222323Z 2300/2324 22020G30KT P6SM SCT080
     FM230200 32010KT 1SM -SN BR OVC015
     FM230600 35009KT P6SM VCSH BKN030 BKN050
     FM231000 27008KT P6SM SCT050 OVC100=

USA.gov is the U.S. government's official web portal to all federal, state and local government web resources and services.